createdAt,value
2023-04-27T00:00:18.484Z,33.34
2023-04-27T00:01:18.468Z,33.24
2023-04-27T00:02:18.655Z,33.14
2023-04-27T00:03:18.685Z,33.05
2023-04-27T00:04:18.652Z,33.00
2023-04-27T00:05:18.470Z,32.91
2023-04-27T00:06:18.509Z,32.87
2023-04-27T00:07:18.436Z,32.80
2023-04-27T00:08:18.420Z,32.72
2023-04-27T00:09:18.420Z,32.66
2023-04-27T00:10:18.411Z,32.55
2023-04-27T00:11:18.397Z,32.52
2023-04-27T00:12:18.398Z,32.44
2023-04-27T00:13:18.405Z,32.42
2023-04-27T00:14:18.374Z,32.34
2023-04-27T00:15:18.400Z,32.32
2023-04-27T00:16:18.471Z,32.25
2023-04-27T00:17:18.477Z,32.21
2023-04-27T00:18:18.513Z,32.16
2023-04-27T00:19:18.555Z,32.12
2023-04-27T00:20:18.598Z,32.10
2023-04-27T00:21:18.648Z,32.05
2023-04-27T00:22:18.683Z,32.02
2023-04-27T00:23:18.721Z,31.98
2023-04-27T00:24:18.768Z,31.98
2023-04-27T00:25:19.081Z,31.94
2023-04-27T00:26:18.847Z,31.96
2023-04-27T00:27:18.878Z,31.92
2023-04-27T00:28:18.923Z,31.90
2023-04-27T00:29:18.979Z,31.88
2023-04-27T00:30:18.991Z,31.85
2023-04-27T00:31:19.086Z,31.82
2023-04-27T00:32:19.110Z,31.83
2023-04-27T00:33:19.124Z,31.83
2023-04-27T00:34:19.151Z,31.79
2023-04-27T00:35:19.198Z,31.80
2023-04-27T00:36:19.222Z,31.79
2023-04-27T00:37:19.259Z,31.75
2023-04-27T00:38:19.303Z,31.74
2023-04-27T00:39:20.004Z,31.72
2023-04-27T00:40:19.354Z,31.73
2023-04-27T00:41:19.390Z,31.72
2023-04-27T00:42:19.452Z,31.70
2023-04-27T00:43:19.472Z,31.71
2023-04-27T00:44:19.498Z,31.69
2023-04-27T00:45:19.576Z,31.68
2023-04-27T00:46:19.694Z,31.69
2023-04-27T00:47:19.651Z,31.65
2023-04-27T00:48:19.653Z,31.70
2023-04-27T00:49:19.679Z,31.63
2023-04-27T00:50:19.730Z,31.66
2023-04-27T00:51:19.748Z,31.65
2023-04-27T00:52:19.778Z,31.64
2023-04-27T00:53:19.819Z,31.65
2023-04-27T00:54:19.857Z,31.59
2023-04-27T00:55:19.881Z,31.60
2023-04-27T00:56:19.920Z,31.63
2023-04-27T00:57:19.960Z,31.62
2023-04-27T00:58:20.000Z,31.63
2023-04-27T00:59:20.041Z,31.62
2023-04-27T01:00:20.071Z,31.63
2023-04-27T01:01:20.162Z,31.63
2023-04-27T01:02:20.192Z,31.59
2023-04-27T01:03:20.412Z,31.62
2023-04-27T01:04:20.366Z,31.62
2023-04-27T01:05:20.240Z,31.60
2023-04-27T01:06:20.271Z,31.59
2023-04-27T01:07:20.309Z,31.56
2023-04-27T01:08:20.347Z,31.58
2023-04-27T01:09:20.392Z,31.59
2023-04-27T01:10:20.400Z,31.60
2023-04-27T01:11:20.435Z,31.59
2023-04-27T01:12:20.476Z,31.57
2023-04-27T01:13:20.524Z,31.55
2023-04-27T01:14:20.599Z,31.56
2023-04-27T01:15:20.575Z,31.55
2023-04-27T01:16:20.657Z,31.57
2023-04-27T01:17:20.655Z,31.57
2023-04-27T01:18:20.665Z,31.56
2023-04-27T01:19:20.701Z,31.56
2023-04-27T01:20:20.738Z,31.55
2023-04-27T01:21:20.766Z,31.56
2023-04-27T01:22:21.730Z,31.55
2023-04-27T01:23:20.855Z,31.53
2023-04-27T01:24:20.877Z,31.55
2023-04-27T01:25:20.920Z,31.54
2023-04-27T01:26:20.947Z,31.52
2023-04-27T01:27:20.983Z,31.52
2023-04-27T01:28:21.028Z,31.55
2023-04-27T01:29:21.052Z,31.54
2023-04-27T01:30:21.232Z,31.53
2023-04-27T01:31:21.137Z,31.53
2023-04-27T01:32:21.187Z,31.54
2023-04-27T01:33:21.210Z,31.53
2023-04-27T01:34:21.229Z,31.53
2023-04-27T01:35:21.256Z,31.51
2023-04-27T01:36:21.281Z,31.52
2023-04-27T01:37:21.315Z,31.52
2023-04-27T01:38:21.347Z,31.51
2023-04-27T01:39:21.389Z,31.50
2023-04-27T01:40:24.246Z,31.47
2023-04-27T01:41:21.747Z,31.50
2023-04-27T01:42:21.417Z,31.48
2023-04-27T01:43:21.393Z,31.49
2023-04-27T01:44:21.399Z,31.49
2023-04-27T01:45:21.385Z,31.47
2023-04-27T01:46:21.446Z,31.46
2023-04-27T01:47:21.370Z,31.48
2023-04-27T01:48:21.363Z,31.46
2023-04-27T01:49:21.383Z,31.45
2023-04-27T01:50:21.366Z,31.49
2023-04-27T01:51:21.355Z,31.48
2023-04-27T01:52:21.338Z,31.49
2023-04-27T01:53:21.330Z,31.48
2023-04-27T01:54:21.329Z,31.45
2023-04-27T01:55:21.321Z,31.48
2023-04-27T01:56:21.323Z,31.49
2023-04-27T01:57:21.318Z,31.48
2023-04-27T01:58:21.296Z,31.48
2023-04-27T01:59:21.289Z,31.47
2023-04-27T02:00:21.282Z,31.46
2023-04-27T02:01:21.350Z,31.45
2023-04-27T02:02:21.437Z,31.46
2023-04-27T02:03:21.364Z,31.47
2023-04-27T02:04:21.492Z,31.47
2023-04-27T02:05:21.277Z,31.46
2023-04-27T02:06:21.239Z,31.48
2023-04-27T02:07:21.231Z,31.46
2023-04-27T02:08:21.222Z,31.45
2023-04-27T02:09:21.233Z,31.45
2023-04-27T02:10:21.262Z,31.45
2023-04-27T02:11:21.306Z,31.44
2023-04-27T02:12:21.340Z,31.42
2023-04-27T02:13:21.391Z,31.46
2023-04-27T02:14:21.416Z,31.43
2023-04-27T02:15:21.442Z,31.45
2023-04-27T02:16:21.523Z,31.44
2023-04-27T02:17:21.515Z,31.43
2023-04-27T02:18:21.553Z,31.43
2023-04-27T02:19:21.601Z,31.42
2023-04-27T02:20:21.629Z,31.43
2023-04-27T02:21:21.699Z,31.44
2023-04-27T02:22:21.702Z,31.43
2023-04-27T02:23:21.738Z,31.41
2023-04-27T02:24:21.767Z,31.40
2023-04-27T02:25:21.815Z,31.42
2023-04-27T02:26:21.850Z,31.41
2023-04-27T02:27:21.896Z,31.40
2023-04-27T02:28:21.925Z,31.40
2023-04-27T02:29:21.956Z,31.41
2023-04-27T02:30:21.998Z,31.40
2023-04-27T02:31:22.084Z,31.42
2023-04-27T02:32:22.083Z,31.38
2023-04-27T02:33:22.110Z,31.39
2023-04-27T02:34:22.151Z,31.37
2023-04-27T02:35:22.266Z,31.40
2023-04-27T02:36:22.220Z,31.38
2023-04-27T02:37:22.293Z,31.38
2023-04-27T02:38:22.307Z,31.37
2023-04-27T02:39:22.344Z,31.41
2023-04-27T02:40:22.391Z,31.38
2023-04-27T02:41:22.434Z,31.40
2023-04-27T02:42:22.471Z,31.38
2023-04-27T02:43:22.503Z,31.40
2023-04-27T02:44:22.548Z,31.37
2023-04-27T02:45:22.593Z,31.39
2023-04-27T02:46:22.666Z,31.39
2023-04-27T02:47:22.684Z,31.39
2023-04-27T02:48:22.699Z,31.36
2023-04-27T02:49:22.745Z,31.40
2023-04-27T02:50:22.785Z,31.40
2023-04-27T02:51:22.824Z,31.40
2023-04-27T02:52:22.869Z,31.40
2023-04-27T02:53:22.928Z,31.41
2023-04-27T02:54:22.942Z,31.38
2023-04-27T02:55:22.993Z,31.37
2023-04-27T02:56:23.015Z,31.37
2023-04-27T02:57:23.047Z,31.37
2023-04-27T02:58:23.092Z,31.37
2023-04-27T02:59:23.134Z,31.39
2023-04-27T03:00:23.163Z,31.39
2023-04-27T03:01:23.272Z,31.36
2023-04-27T03:02:23.294Z,31.38
2023-04-27T03:03:23.384Z,31.37
2023-04-27T03:04:23.395Z,31.35
2023-04-27T03:05:23.348Z,31.36
2023-04-27T03:06:23.388Z,31.37
2023-04-27T03:07:23.447Z,31.36
2023-04-27T03:08:23.474Z,31.36
2023-04-27T03:09:23.536Z,31.36
2023-04-27T03:10:23.558Z,31.37
2023-04-27T03:11:23.598Z,31.36
2023-04-27T03:12:23.644Z,31.37
2023-04-27T03:13:23.685Z,31.36
2023-04-27T03:14:23.724Z,31.36
2023-04-27T03:15:23.765Z,31.36
2023-04-27T03:16:23.831Z,31.38
2023-04-27T03:17:23.856Z,31.38
2023-04-27T03:18:23.895Z,31.34
2023-04-27T03:19:23.913Z,31.38
2023-04-27T03:20:23.962Z,31.41
2023-04-27T03:21:24.006Z,31.34
2023-04-27T03:22:24.055Z,31.34
2023-04-27T03:23:24.090Z,31.37
2023-04-27T03:24:24.133Z,31.36
2023-04-27T03:25:24.211Z,31.35
2023-04-27T03:26:24.233Z,31.34
2023-04-27T03:27:24.258Z,31.36
2023-04-27T03:28:24.298Z,31.38
2023-04-27T03:29:24.344Z,31.39
2023-04-27T03:30:24.384Z,31.38
2023-04-27T03:31:24.463Z,31.36
2023-04-27T03:32:24.513Z,31.39
2023-04-27T03:33:24.510Z,31.39
2023-04-27T03:34:24.544Z,31.36
2023-04-27T03:35:24.592Z,31.35
2023-04-27T03:36:24.616Z,31.35
2023-04-27T03:37:24.666Z,31.36
2023-04-27T03:38:24.697Z,31.35
2023-04-27T03:39:24.742Z,31.35
2023-04-27T03:40:24.776Z,31.35
2023-04-27T03:41:24.841Z,31.37
2023-04-27T03:42:24.867Z,31.36
2023-04-27T03:43:24.890Z,31.34
2023-04-27T03:44:24.938Z,31.35
2023-04-27T03:45:24.973Z,31.33
2023-04-27T03:46:25.041Z,31.37
2023-04-27T03:47:25.119Z,31.36
2023-04-27T03:48:25.089Z,31.34
2023-04-27T03:49:25.143Z,31.34
2023-04-27T03:50:25.165Z,31.37
2023-04-27T03:51:25.200Z,31.34
2023-04-27T03:52:25.241Z,31.37
2023-04-27T03:53:25.296Z,31.35
2023-04-27T03:54:25.324Z,31.35
2023-04-27T03:55:25.371Z,31.35
2023-04-27T03:56:25.396Z,31.36
2023-04-27T03:57:25.460Z,31.36
2023-04-27T03:58:25.474Z,31.34
2023-04-27T03:59:25.524Z,31.36
2023-04-27T04:00:25.562Z,31.36
2023-04-27T04:01:25.601Z,31.37
2023-04-27T04:02:25.761Z,31.34
2023-04-27T04:03:25.997Z,31.33
2023-04-27T04:04:25.874Z,31.35
2023-04-27T04:05:25.774Z,31.34
2023-04-27T04:06:25.800Z,31.35
2023-04-27T04:07:25.869Z,31.35
2023-04-27T04:08:25.883Z,31.36
2023-04-27T04:09:25.930Z,31.36
2023-04-27T04:10:25.974Z,31.36
2023-04-27T04:11:26.005Z,31.35
2023-04-27T04:12:26.052Z,31.34
2023-04-27T04:13:26.149Z,31.33
2023-04-27T04:14:26.141Z,31.34
2023-04-27T04:15:26.188Z,31.36
2023-04-27T04:16:26.245Z,31.35
2023-04-27T04:17:26.283Z,31.36
2023-04-27T04:18:26.317Z,31.36
2023-04-27T04:19:26.361Z,31.35
2023-04-27T04:20:26.404Z,31.36
2023-04-27T04:21:26.462Z,31.35
2023-04-27T04:22:26.500Z,31.33
2023-04-27T04:23:26.554Z,31.35
2023-04-27T04:24:26.584Z,31.34
2023-04-27T04:25:26.624Z,31.33
2023-04-27T04:26:26.662Z,31.37
2023-04-27T04:27:26.701Z,31.33
2023-04-27T04:28:26.747Z,31.34
2023-04-27T04:29:26.817Z,31.35
2023-04-27T04:30:26.845Z,31.35
2023-04-27T04:31:26.940Z,31.35
2023-04-27T04:32:26.940Z,31.34
2023-04-27T04:33:26.953Z,31.35
2023-04-27T04:34:27.000Z,31.35
2023-04-27T04:35:27.053Z,31.36
2023-04-27T04:36:27.089Z,31.36
2023-04-27T04:37:27.133Z,31.34
2023-04-27T04:38:27.179Z,31.35
2023-04-27T04:39:27.217Z,31.33
2023-04-27T04:40:27.269Z,31.34
2023-04-27T04:41:27.303Z,31.33
2023-04-27T04:42:27.354Z,31.34
2023-04-27T04:43:27.392Z,31.34
2023-04-27T04:44:27.437Z,31.33
2023-04-27T04:45:27.505Z,31.33
2023-04-27T04:46:27.543Z,31.32
2023-04-27T04:47:27.606Z,31.33
2023-04-27T04:48:27.592Z,31.36
2023-04-27T04:49:27.653Z,31.32
2023-04-27T04:50:27.690Z,31.32
2023-04-27T04:51:27.732Z,31.34
2023-04-27T04:52:27.777Z,31.32
2023-04-27T04:53:27.814Z,31.34
2023-04-27T04:54:27.899Z,31.33
2023-04-27T04:55:27.886Z,31.35
2023-04-27T04:56:27.920Z,31.33
2023-04-27T04:57:28.047Z,31.33
2023-04-27T04:58:28.002Z,31.34
2023-04-27T04:59:29.425Z,31.35
2023-04-27T05:00:28.032Z,31.32
2023-04-27T05:01:28.090Z,31.34
2023-04-27T05:02:28.217Z,31.33
2023-04-27T05:03:28.213Z,31.35
2023-04-27T05:04:28.194Z,31.33
2023-04-27T05:05:28.000Z,31.33
2023-04-27T05:06:27.995Z,31.33
2023-04-27T05:07:27.992Z,31.32
2023-04-27T05:08:27.982Z,31.35
2023-04-27T05:09:27.978Z,31.32
2023-04-27T05:10:27.967Z,31.33
2023-04-27T05:11:27.979Z,31.35
2023-04-27T05:12:27.983Z,31.34
2023-04-27T05:13:27.954Z,31.35
2023-04-27T05:14:27.950Z,31.35
2023-04-27T05:15:27.932Z,31.36
2023-04-27T05:16:27.985Z,31.35
2023-04-27T05:17:27.974Z,31.36
2023-04-27T05:18:27.900Z,31.35
2023-04-27T05:19:27.898Z,31.35
2023-04-27T05:20:27.914Z,31.34
2023-04-27T05:21:27.898Z,31.54
2023-04-27T05:22:27.886Z,31.49
2023-04-27T05:23:27.872Z,31.50
2023-04-27T05:24:27.960Z,31.58
2023-04-27T05:25:27.852Z,31.58
2023-04-27T05:26:27.844Z,31.61
2023-04-27T05:27:27.858Z,31.65
2023-04-27T05:28:27.838Z,31.66
2023-04-27T05:29:27.853Z,31.67
2023-04-27T05:30:27.886Z,31.63
2023-04-27T05:31:27.942Z,31.63
2023-04-27T05:32:27.967Z,31.60
2023-04-27T05:33:28.022Z,31.62
2023-04-27T05:34:28.037Z,31.65
2023-04-27T05:35:28.081Z,31.66
2023-04-27T05:36:28.110Z,31.64
2023-04-27T05:37:28.162Z,31.65
2023-04-27T05:38:28.200Z,31.67
2023-04-27T05:39:28.227Z,31.65
2023-04-27T05:40:28.319Z,31.71
2023-04-27T05:41:28.303Z,31.73
2023-04-27T05:42:28.839Z,31.75
2023-04-27T05:43:28.383Z,31.81
2023-04-27T05:44:28.562Z,31.95
2023-04-27T05:45:28.852Z,32.01
2023-04-27T05:46:28.524Z,32.06
2023-04-27T05:47:28.528Z,32.04
2023-04-27T05:48:28.559Z,32.02
2023-04-27T05:49:28.626Z,32.15
2023-04-27T05:50:28.839Z,32.15
2023-04-27T05:51:29.624Z,32.42
2023-04-27T05:52:28.830Z,32.51
2023-04-27T05:53:28.709Z,33.05
2023-04-27T05:54:28.732Z,33.13
2023-04-27T05:55:28.799Z,33.08
2023-04-27T05:56:28.849Z,33.27
2023-04-27T05:57:28.890Z,33.61
2023-04-27T05:58:28.868Z,33.73
2023-04-27T05:59:28.884Z,33.63
2023-04-27T06:00:28.977Z,33.66
2023-04-27T06:01:28.934Z,33.47
2023-04-27T06:02:29.233Z,33.36
2023-04-27T06:03:29.241Z,33.41
2023-04-27T06:04:29.257Z,33.40
2023-04-27T06:05:29.129Z,33.31
2023-04-27T06:06:29.039Z,33.31
2023-04-27T06:07:29.081Z,33.28
2023-04-27T06:08:29.340Z,33.21
2023-04-27T06:09:29.121Z,33.16
2023-04-27T06:10:29.336Z,33.17
2023-04-27T06:11:29.190Z,33.12
2023-04-27T06:12:29.208Z,33.13
2023-04-27T06:13:29.276Z,33.00
2023-04-27T06:14:29.270Z,32.97
2023-04-27T06:15:29.327Z,32.99
2023-04-27T06:16:29.360Z,32.94
2023-04-27T06:17:29.441Z,32.92
2023-04-27T06:18:29.397Z,32.98
2023-04-27T06:19:29.437Z,32.93
2023-04-27T06:20:29.477Z,32.88
2023-04-27T06:21:29.523Z,32.88
2023-04-27T06:22:29.532Z,32.85
2023-04-27T06:23:36.047Z,32.84
2023-04-27T06:24:29.557Z,32.84
2023-04-27T06:25:29.869Z,32.82
2023-04-27T06:26:29.532Z,32.82
2023-04-27T06:27:29.868Z,32.81
2023-04-27T06:28:29.524Z,32.86
2023-04-27T06:29:29.511Z,32.82
2023-04-27T06:30:29.872Z,32.79
2023-04-27T06:31:29.550Z,32.83
2023-04-27T06:32:29.534Z,32.78
2023-04-27T06:33:29.480Z,32.80
2023-04-27T06:34:29.483Z,32.76
2023-04-27T06:35:29.884Z,32.81
2023-04-27T06:36:29.880Z,32.80
2023-04-27T06:37:29.492Z,32.78
2023-04-27T06:38:29.451Z,32.79
2023-04-27T06:39:29.432Z,32.74
2023-04-27T06:40:29.431Z,32.75
2023-04-27T06:41:29.421Z,32.79
2023-04-27T06:42:29.418Z,32.77
2023-04-27T06:43:29.404Z,32.77
2023-04-27T06:44:29.405Z,32.76
2023-04-27T06:45:29.872Z,32.74
2023-04-27T06:46:29.910Z,32.72
2023-04-27T06:47:29.420Z,32.70
2023-04-27T06:48:29.431Z,32.71
2023-04-27T06:49:29.468Z,32.67
2023-04-27T06:50:29.886Z,32.69
2023-04-27T06:51:29.546Z,32.72
2023-04-27T06:52:29.572Z,32.69
2023-04-27T06:53:29.688Z,32.69
2023-04-27T06:54:29.631Z,32.70
2023-04-27T06:55:29.890Z,32.70
2023-04-27T06:56:29.914Z,32.70
2023-04-27T06:57:29.716Z,32.70
2023-04-27T06:58:29.883Z,32.69
2023-04-27T06:59:29.774Z,32.67
2023-04-27T07:00:30.129Z,32.67
2023-04-27T07:01:30.858Z,32.66
2023-04-27T07:02:29.882Z,32.64
2023-04-27T07:03:31.526Z,32.64
2023-04-27T07:04:29.908Z,32.66
2023-04-27T07:05:29.891Z,32.65
2023-04-27T07:06:29.880Z,32.64
2023-04-27T07:07:29.874Z,32.66
2023-04-27T07:08:29.909Z,32.61
2023-04-27T07:09:30.305Z,32.62
2023-04-27T07:10:29.868Z,32.63
2023-04-27T07:11:29.853Z,32.62
2023-04-27T07:12:29.850Z,32.63
2023-04-27T07:13:29.845Z,32.58
2023-04-27T07:14:29.838Z,32.60
2023-04-27T07:15:29.918Z,32.59
2023-04-27T07:16:29.910Z,32.58
2023-04-27T07:17:37.253Z,32.59
2023-04-27T07:18:29.802Z,32.58
2023-04-27T07:19:29.794Z,32.58
2023-04-27T07:20:29.789Z,32.55
2023-04-27T07:21:29.789Z,32.53
2023-04-27T07:22:29.772Z,32.53
2023-04-27T07:23:29.907Z,32.51
2023-04-27T07:24:29.759Z,32.51
2023-04-27T07:25:29.776Z,32.51
2023-04-27T07:26:29.888Z,32.49
2023-04-27T07:27:29.729Z,32.47
2023-04-27T07:28:29.945Z,32.50
2023-04-27T07:29:30.023Z,32.49
2023-04-27T07:30:29.808Z,32.45
2023-04-27T07:31:29.933Z,32.48
2023-04-27T07:32:29.751Z,32.48
2023-04-27T07:33:37.111Z,32.46
2023-04-27T07:34:41.209Z,32.47
2023-04-27T07:35:29.680Z,32.50
2023-04-27T07:36:29.896Z,32.57
2023-04-27T07:37:29.703Z,32.78
2023-04-27T07:38:29.661Z,32.87
2023-04-27T07:39:29.651Z,32.90
2023-04-27T07:40:29.640Z,33.15
2023-04-27T07:41:29.661Z,33.49
2023-04-27T07:42:29.634Z,33.52
2023-04-27T07:43:29.619Z,33.55
2023-04-27T07:44:29.611Z,33.62
2023-04-27T07:45:29.717Z,33.72
2023-04-27T07:46:29.898Z,33.79
2023-04-27T07:47:29.832Z,33.87
2023-04-27T07:48:29.916Z,33.94
2023-04-27T07:49:29.572Z,33.39
2023-04-27T07:50:29.567Z,33.65
2023-04-27T07:51:33.116Z,33.92
2023-04-27T07:52:29.928Z,34.54
2023-04-27T07:53:29.563Z,34.83
2023-04-27T07:54:29.926Z,35.04
2023-04-27T07:55:29.543Z,35.00
2023-04-27T07:56:29.533Z,35.37
2023-04-27T07:57:29.937Z,35.59
2023-04-27T07:58:29.522Z,35.53
2023-04-27T07:59:29.504Z,35.39
2023-04-27T08:00:29.516Z,35.52
2023-04-27T08:01:29.491Z,35.53
2023-04-27T08:02:30.014Z,35.57
2023-04-27T08:03:29.906Z,35.62
2023-04-27T08:04:29.952Z,35.47
2023-04-27T08:05:30.285Z,35.59
2023-04-27T08:06:30.260Z,35.65
2023-04-27T08:07:30.147Z,35.65
2023-04-27T08:08:29.896Z,35.76
2023-04-27T08:09:29.448Z,35.72
2023-04-27T08:10:29.465Z,35.75
2023-04-27T08:11:29.917Z,35.76
2023-04-27T08:12:29.456Z,35.80
2023-04-27T08:13:29.946Z,35.75
2023-04-27T08:14:30.420Z,35.82
2023-04-27T08:15:29.413Z,35.85
2023-04-27T08:16:29.955Z,35.94
2023-04-27T08:17:29.417Z,35.93
2023-04-27T08:18:29.386Z,35.98
2023-04-27T08:19:29.388Z,36.04
2023-04-27T08:20:29.369Z,36.13
2023-04-27T08:21:29.373Z,36.23
2023-04-27T08:22:29.372Z,36.28
2023-04-27T08:23:29.372Z,36.41
2023-04-27T08:24:29.360Z,36.42
2023-04-27T08:25:29.356Z,36.38
2023-04-27T08:26:29.393Z,36.59
2023-04-27T08:27:29.430Z,36.75
2023-04-27T08:28:29.468Z,36.69
2023-04-27T08:29:29.625Z,36.93
2023-04-27T08:30:29.573Z,36.98
2023-04-27T08:31:29.670Z,37.06
2023-04-27T08:32:30.678Z,37.20
2023-04-27T08:33:29.785Z,37.23
2023-04-27T08:34:29.828Z,37.39
2023-04-27T08:35:29.896Z,37.35
2023-04-27T08:36:29.955Z,37.35
2023-04-27T08:37:30.411Z,37.54
2023-04-27T08:38:30.408Z,37.79
2023-04-27T08:39:30.132Z,37.72
2023-04-27T08:40:30.173Z,37.87
2023-04-27T08:41:30.225Z,37.96
2023-04-27T08:42:30.292Z,38.14
2023-04-27T08:43:30.411Z,38.18
2023-04-27T08:44:30.425Z,38.37
2023-04-27T08:45:30.479Z,38.18
2023-04-27T08:46:30.525Z,38.30
2023-04-27T08:47:41.826Z,38.35
2023-04-27T08:48:30.943Z,38.39
2023-04-27T08:49:30.505Z,38.52
2023-04-27T08:50:30.498Z,38.49
2023-04-27T08:51:30.913Z,38.56
2023-04-27T08:52:30.494Z,38.60
2023-04-27T08:53:30.494Z,38.61
2023-04-27T08:54:30.920Z,38.57
2023-04-27T08:55:30.482Z,38.65
2023-04-27T08:56:30.935Z,38.79
2023-04-27T08:57:30.531Z,38.93
2023-04-27T08:58:30.445Z,39.03
2023-04-27T08:59:30.443Z,39.12
2023-04-27T09:00:30.435Z,39.16
2023-04-27T09:01:30.960Z,39.21
2023-04-27T09:02:30.552Z,39.30
2023-04-27T09:03:30.580Z,39.42
2023-04-27T09:04:30.534Z,39.46
2023-04-27T09:05:30.445Z,39.36
2023-04-27T09:06:30.440Z,39.43
2023-04-27T09:07:30.403Z,39.46
2023-04-27T09:08:30.376Z,39.52
2023-04-27T09:09:30.365Z,39.62
2023-04-27T09:10:30.497Z,39.64
2023-04-27T09:11:30.456Z,39.86
2023-04-27T09:12:30.923Z,39.99
2023-04-27T09:13:30.581Z,39.95
2023-04-27T09:14:30.603Z,40.10
2023-04-27T09:15:30.646Z,40.05
2023-04-27T09:16:30.996Z,40.12
2023-04-27T09:17:30.915Z,40.28
2023-04-27T09:18:30.781Z,40.34
2023-04-27T09:19:30.851Z,40.38
2023-04-27T09:20:30.861Z,40.42
2023-04-27T09:21:30.931Z,40.43
2023-04-27T09:22:30.947Z,40.62
2023-04-27T09:23:30.988Z,40.63
2023-04-27T09:24:31.036Z,40.85
2023-04-27T09:25:31.075Z,40.86
2023-04-27T09:26:31.427Z,40.76
2023-04-27T09:27:31.429Z,40.62
2023-04-27T09:28:31.193Z,40.42
2023-04-27T09:29:31.229Z,40.35
2023-04-27T09:30:31.282Z,40.06
2023-04-27T09:31:31.485Z,36.54
2023-04-27T09:32:32.593Z,37.06
2023-04-27T09:33:31.390Z,36.78
2023-04-27T09:34:31.430Z,36.19
2023-04-27T09:35:31.432Z,36.56
2023-04-27T09:36:31.965Z,37.39
2023-04-27T09:38:03.739Z,37.41
2023-04-27T09:38:31.496Z,35.66
2023-04-27T09:39:31.492Z,36.62
2023-04-27T09:40:31.609Z,36.22
2023-04-27T09:41:31.459Z,36.33
2023-04-27T09:42:31.936Z,35.71
2023-04-27T09:43:31.460Z,36.52
2023-04-27T09:44:31.931Z,36.76
2023-04-27T09:45:31.493Z,36.46
2023-04-27T09:46:31.466Z,36.46
2023-04-27T09:47:31.460Z,36.27
2023-04-27T09:48:31.494Z,36.61
2023-04-27T09:49:31.426Z,36.72
2023-04-27T09:50:31.396Z,36.24
2023-04-27T09:51:31.398Z,36.01
2023-04-27T09:52:31.386Z,36.29
2023-04-27T09:53:31.372Z,36.57
2023-04-27T09:54:31.362Z,36.39
2023-04-27T09:55:31.381Z,36.16
2023-04-27T09:56:31.439Z,36.12
2023-04-27T09:57:31.348Z,35.65
2023-04-27T09:58:31.465Z,36.01
2023-04-27T09:59:31.465Z,36.03
2023-04-27T10:00:31.336Z,35.80
2023-04-27T10:01:31.335Z,36.21
2023-04-27T10:02:35.001Z,36.16
2023-04-27T10:03:31.412Z,36.18
2023-04-27T10:04:31.608Z,36.03
2023-04-27T10:05:31.289Z,36.08
2023-04-27T10:06:31.289Z,36.12
2023-04-27T10:07:31.282Z,36.02
2023-04-27T10:08:31.285Z,35.91
2023-04-27T10:09:31.472Z,35.69
2023-04-27T10:10:31.257Z,35.87
2023-04-27T10:11:31.256Z,35.59
2023-04-27T10:12:31.242Z,35.80
2023-04-27T10:13:31.248Z,35.84
2023-04-27T10:14:31.454Z,35.60
2023-04-27T10:15:31.244Z,35.49
2023-04-27T10:16:31.498Z,35.71
2023-04-27T10:17:31.259Z,35.56
2023-04-27T10:18:31.447Z,35.58
2023-04-27T10:19:31.200Z,35.15
2023-04-27T10:20:31.213Z,35.33
2023-04-27T10:21:31.464Z,34.96
2023-04-27T10:22:31.183Z,34.67
2023-04-27T10:23:31.457Z,35.38
2023-04-27T10:24:31.450Z,35.35
2023-04-27T10:25:31.165Z,35.30
2023-04-27T10:26:33.536Z,35.24
2023-04-27T10:27:31.142Z,35.30
2023-04-27T10:28:31.482Z,35.37
2023-04-27T10:29:31.128Z,35.21
2023-04-27T10:30:31.179Z,35.39
2023-04-27T10:31:31.173Z,35.26
2023-04-27T10:32:31.493Z,35.32
2023-04-27T10:33:31.178Z,35.34
2023-04-27T10:34:31.457Z,35.49
2023-04-27T10:35:31.088Z,35.33
2023-04-27T10:36:31.112Z,35.23
2023-04-27T10:37:31.079Z,35.15
2023-04-27T10:38:31.088Z,35.16
2023-04-27T10:39:44.078Z,35.07
2023-04-27T10:40:31.060Z,35.10
2023-04-27T10:41:31.047Z,35.15
2023-04-27T10:42:31.041Z,34.95
2023-04-27T10:43:31.037Z,35.09
2023-04-27T10:44:31.474Z,35.06
2023-04-27T10:45:32.129Z,34.86
2023-04-27T10:46:31.492Z,34.68
2023-04-27T10:47:31.041Z,34.84
2023-04-27T10:48:30.996Z,34.70
2023-04-27T10:49:31.469Z,34.82
2023-04-27T10:50:30.979Z,34.57
2023-04-27T10:51:30.987Z,34.73
2023-04-27T10:52:30.993Z,34.63
2023-04-27T10:53:30.978Z,34.32
2023-04-27T10:54:30.962Z,34.69
2023-04-27T10:55:30.951Z,34.70
2023-04-27T10:56:30.938Z,34.75
2023-04-27T10:57:30.939Z,34.36
2023-04-27T10:58:41.549Z,34.68
2023-04-27T10:59:30.967Z,34.68
2023-04-27T11:00:30.921Z,34.46
2023-04-27T11:01:30.934Z,34.55
2023-04-27T11:02:30.970Z,34.58
2023-04-27T11:03:30.984Z,34.08
2023-04-27T11:04:31.023Z,34.26
2023-04-27T11:05:30.886Z,34.33
2023-04-27T11:06:30.974Z,34.43
2023-04-27T11:07:30.872Z,34.32
2023-04-27T11:08:30.885Z,34.26
2023-04-27T11:09:30.856Z,34.49
2023-04-27T11:10:31.012Z,34.40
2023-04-27T11:11:31.016Z,34.27
2023-04-27T11:12:30.832Z,34.22
2023-04-27T11:13:30.830Z,34.15
2023-04-27T11:14:30.970Z,34.19
2023-04-27T11:15:30.850Z,34.18
2023-04-27T11:16:32.855Z,34.15
2023-04-27T11:17:30.858Z,34.19
2023-04-27T11:18:30.815Z,34.13
2023-04-27T11:19:30.786Z,34.13
2023-04-27T11:20:30.773Z,34.12
2023-04-27T11:21:30.970Z,34.14
2023-04-27T11:22:30.762Z,34.15
2023-04-27T11:23:30.757Z,34.11
2023-04-27T11:24:30.786Z,34.14
2023-04-27T11:25:30.730Z,34.13
2023-04-27T11:26:30.975Z,34.15
2023-04-27T11:27:30.720Z,34.15
2023-04-27T11:28:30.719Z,34.18
2023-04-27T11:29:31.850Z,34.19
2023-04-27T11:30:30.700Z,34.21
2023-04-27T11:31:30.998Z,34.18
2023-04-27T11:32:30.694Z,34.15
2023-04-27T11:33:30.681Z,34.16
2023-04-27T11:34:30.979Z,34.16
2023-04-27T11:35:30.660Z,34.14
2023-04-27T11:36:30.977Z,34.16
2023-04-27T11:37:30.659Z,34.15
2023-04-27T11:38:30.682Z,34.18
2023-04-27T11:39:30.984Z,34.19
2023-04-27T11:40:30.661Z,34.21
2023-04-27T11:41:31.005Z,34.21
2023-04-27T11:42:30.608Z,34.22
2023-04-27T11:43:30.608Z,34.25
2023-04-27T11:44:30.607Z,34.22
2023-04-27T11:45:30.591Z,34.23
2023-04-27T11:46:30.596Z,34.24
2023-04-27T11:47:30.616Z,34.25
2023-04-27T11:48:30.566Z,34.24
2023-04-27T11:49:30.982Z,34.25
2023-04-27T11:50:30.559Z,34.25
2023-04-27T11:51:30.557Z,34.26
2023-04-27T11:52:30.552Z,34.26
2023-04-27T11:53:30.537Z,34.31
2023-04-27T11:54:30.549Z,34.30
2023-04-27T11:55:30.524Z,34.28
2023-04-27T11:56:30.543Z,34.30
2023-04-27T11:57:30.519Z,34.28
2023-04-27T11:58:30.509Z,34.28
2023-04-27T11:59:30.506Z,34.29
2023-04-27T12:00:30.990Z,34.30
2023-04-27T12:01:37.713Z,34.29
2023-04-27T12:02:30.625Z,34.30
2023-04-27T12:03:30.946Z,34.30
2023-04-27T12:04:30.567Z,34.30
2023-04-27T12:05:30.554Z,34.30
2023-04-27T12:06:33.181Z,34.28
2023-04-27T12:07:30.442Z,34.30
2023-04-27T12:08:30.439Z,34.28
2023-04-27T12:09:30.434Z,34.30
2023-04-27T12:10:30.493Z,34.32
2023-04-27T12:11:30.426Z,34.30
2023-04-27T12:12:30.432Z,34.27
2023-04-27T12:13:30.497Z,34.29
2023-04-27T12:14:30.425Z,34.26
2023-04-27T12:15:30.377Z,34.29
2023-04-27T12:16:30.425Z,34.28
2023-04-27T12:17:30.480Z,34.29
2023-04-27T12:18:30.371Z,34.29
2023-04-27T12:19:30.367Z,34.27
2023-04-27T12:20:30.352Z,34.29
2023-04-27T12:21:30.342Z,34.31
2023-04-27T12:22:30.337Z,34.29
2023-04-27T12:23:30.321Z,34.32
2023-04-27T12:24:30.335Z,34.30
2023-04-27T12:25:30.334Z,34.34
2023-04-27T12:26:30.498Z,34.32
2023-04-27T12:27:30.306Z,34.33
2023-04-27T12:28:30.315Z,34.33
2023-04-27T12:29:30.285Z,34.33
2023-04-27T12:30:30.496Z,34.33
2023-04-27T12:31:30.315Z,34.34
2023-04-27T12:32:30.266Z,34.33
2023-04-27T12:33:30.264Z,34.34
2023-04-27T12:34:30.249Z,34.36
2023-04-27T12:35:30.501Z,34.35
2023-04-27T12:36:30.245Z,34.34
2023-04-27T12:37:30.234Z,34.35
2023-04-27T12:38:30.221Z,34.35
2023-04-27T12:39:30.217Z,34.36
2023-04-27T12:40:30.501Z,34.36
2023-04-27T12:41:30.209Z,34.38
2023-04-27T12:42:30.194Z,34.36
2023-04-27T12:43:30.506Z,34.36
2023-04-27T12:44:30.206Z,34.37
2023-04-27T12:45:30.499Z,34.36
2023-04-27T12:46:30.237Z,34.39
2023-04-27T12:48:29.162Z,34.36
2023-04-27T12:49:30.142Z,34.39
2023-04-27T12:50:30.138Z,34.40
2023-04-27T12:51:30.137Z,34.39
2023-04-27T12:52:30.128Z,34.39
2023-04-27T12:53:30.123Z,34.40